Lochbuie, Colorado
Current Conditions -  °F | °C
As of 2:53 PM on Wednesday 28 Jan 2015 (Local Time) from KDEN Reporting Station
Scattered Clouds Scattered Clouds  
Wind Chill: 59°   Ceiling: Unl
Heat Index: 59°   Visibility: 10mi
Dew Point: 18°   Wind: 12mph
Humidity: 20%   Direction: 310°NW
Pressure: 30.06"   Gusts: 21mph
Location:  39.9805°N, 104.669°W
Report Text: KDEN 282153Z 31010G18KT 10SM FEW070 FEW140 SCT220 15/M08 A3006 RMK AO2 PK WND 33028/2103 SLP141 T01501078
Loading
Personal Weather Stations






























Interactive Weather Map New forecast layout! Learn more

10-Day Weather Forecast

Advertisements
Track Severe Weather on mobile